createdAt,value
2023-05-03T00:01:34.561Z,1.20
2023-05-03T00:04:01.450Z,1.25
2023-05-03T00:06:28.122Z,1.23
2023-05-03T00:08:54.721Z,1.60
2023-05-03T00:11:21.709Z,1.20
2023-05-03T00:13:48.259Z,1.33
2023-05-03T00:16:14.767Z,1.20
2023-05-03T00:18:41.339Z,1.20
2023-05-03T00:21:07.889Z,1.30
2023-05-03T00:23:34.398Z,1.30
2023-05-03T00:26:00.944Z,1.30
2023-05-03T00:28:27.496Z,1.20
2023-05-03T00:30:54.173Z,1.50
2023-05-03T00:33:21.496Z,1.20
2023-05-03T00:35:48.564Z,1.43
2023-05-03T00:38:15.431Z,1.10
2023-05-03T00:40:42.019Z,1.33
2023-05-03T00:43:11.577Z,1.10
2023-05-03T00:45:38.331Z,1.20
2023-05-03T00:48:04.958Z,1.10
2023-05-03T00:50:31.488Z,1.50
2023-05-03T00:52:58.353Z,1.33
2023-05-03T00:55:26.237Z,1.23
2023-05-03T00:57:52.955Z,1.20
2023-05-03T01:00:20.371Z,1.43
2023-05-03T01:02:47.089Z,1.10
2023-05-03T01:05:13.853Z,1.15
2023-05-03T01:07:43.379Z,1.10
2023-05-03T01:10:44.222Z,1.30
2023-05-03T01:13:38.346Z,1.23
2023-05-03T01:16:24.371Z,1.60
2023-05-03T01:18:54.864Z,1.50
2023-05-03T01:21:22.793Z,1.60
2023-05-03T01:24:11.426Z,1.48
2023-05-03T01:26:38.063Z,1.80
2023-05-03T01:29:05.462Z,1.20
2023-05-03T01:31:46.955Z,1.15
2023-05-03T01:34:16.511Z,1.60
2023-05-03T01:36:44.654Z,1.15
2023-05-03T01:39:29.265Z,1.20
2023-05-03T01:41:57.877Z,1.20
2023-05-03T01:44:25.288Z,1.58
2023-05-03T01:46:52.025Z,1.30
2023-05-03T01:49:18.576Z,1.77
2023-05-03T01:51:45.108Z,1.63
2023-05-03T01:54:11.848Z,1.48
2023-05-03T01:56:38.479Z,1.30
2023-05-03T01:59:05.006Z,1.50
2023-05-03T02:01:31.689Z,1.50
2023-05-03T02:03:58.300Z,1.67
2023-05-03T02:06:26.032Z,1.80
2023-05-03T02:08:53.382Z,1.83
2023-05-03T02:11:21.556Z,1.60
2023-05-03T02:13:50.614Z,1.58
2023-05-03T02:16:20.179Z,1.50
2023-05-03T02:18:46.718Z,1.75
2023-05-03T02:21:13.963Z,1.90
2023-05-03T02:23:40.467Z,1.73
2023-05-03T02:26:08.469Z,1.60
2023-05-03T02:28:35.115Z,1.77
2023-05-03T02:31:02.548Z,1.52
2023-05-03T02:33:29.153Z,1.90
2023-05-03T02:35:56.324Z,1.80
2023-05-03T02:38:23.116Z,1.60
2023-05-03T02:40:49.658Z,1.50
2023-05-03T02:43:16.214Z,1.40
2023-05-03T02:45:45.914Z,2.10
2023-05-03T02:48:13.219Z,1.60
2023-05-03T02:50:40.444Z,1.73
2023-05-03T02:53:07.023Z,1.60
2023-05-03T02:55:35.092Z,1.55
2023-05-03T02:58:02.537Z,1.75
2023-05-03T03:00:29.111Z,2.40
2023-05-03T03:02:56.039Z,1.60
2023-05-03T03:05:22.809Z,1.80
2023-05-03T03:07:51.250Z,1.60
2023-05-03T03:10:17.923Z,1.80
2023-05-03T03:12:45.082Z,1.67
2023-05-03T03:15:21.251Z,1.70
2023-05-03T03:17:47.898Z,1.73
2023-05-03T03:20:15.044Z,1.50
2023-05-03T03:22:45.684Z,1.77
2023-05-03T03:25:12.460Z,1.75
2023-05-03T03:27:39.768Z,1.75
2023-05-03T03:30:08.201Z,1.70
2023-05-03T03:32:40.042Z,1.67
2023-05-03T03:35:12.053Z,2.47
2023-05-03T03:37:39.255Z,1.92
2023-05-03T03:40:08.000Z,2.50
2023-05-03T03:42:35.797Z,1.80
2023-05-03T03:45:02.885Z,2.00
2023-05-03T03:47:29.433Z,1.88
2023-05-03T03:49:56.110Z,1.65
2023-05-03T03:52:22.754Z,1.30
2023-05-03T03:54:49.500Z,1.63
2023-05-03T03:57:16.281Z,1.90
2023-05-03T03:59:42.948Z,1.75
2023-05-03T04:02:09.760Z,1.83
2023-05-03T04:04:37.106Z,1.73
2023-05-03T04:07:04.469Z,1.57
2023-05-03T04:09:31.078Z,1.58
2023-05-03T04:11:57.586Z,1.35
2023-05-03T04:14:24.201Z,2.17
2023-05-03T04:16:52.256Z,1.70
2023-05-03T04:19:18.840Z,2.00
2023-05-03T04:21:46.213Z,1.92
2023-05-03T04:24:16.603Z,1.88
2023-05-03T04:26:43.927Z,1.63
2023-05-03T04:29:20.143Z,1.88
2023-05-03T04:31:47.500Z,1.80
2023-05-03T04:34:16.121Z,1.80
2023-05-03T04:36:47.290Z,1.90
2023-05-03T04:39:15.386Z,1.67
2023-05-03T04:41:44.403Z,1.90
2023-05-03T04:44:11.825Z,1.70
2023-05-03T04:46:39.622Z,1.83
2023-05-03T04:49:08.048Z,1.98
2023-05-03T04:51:34.931Z,1.75
2023-05-03T04:54:02.179Z,2.00
2023-05-03T04:56:29.576Z,1.47
2023-05-03T04:59:05.585Z,1.63
2023-05-03T05:01:33.272Z,1.80
2023-05-03T05:04:02.709Z,1.70
2023-05-03T05:06:37.071Z,1.50
2023-05-03T05:09:07.481Z,1.50
2023-05-03T05:11:34.632Z,2.00
2023-05-03T05:14:01.341Z,1.63
2023-05-03T05:16:27.983Z,1.40
2023-05-03T05:18:54.496Z,1.60
2023-05-03T05:21:24.759Z,1.73
2023-05-03T05:23:52.375Z,1.60
2023-05-03T05:26:19.079Z,1.75
2023-05-03T05:28:45.671Z,1.75
2023-05-03T05:31:13.066Z,2.30
2023-05-03T05:33:39.927Z,1.73
2023-05-03T05:36:07.624Z,1.65
2023-05-03T05:38:34.654Z,2.15
2023-05-03T05:41:01.316Z,1.92
2023-05-03T05:43:28.005Z,1.55
2023-05-03T05:45:55.548Z,1.60
2023-05-03T05:48:22.856Z,1.85
2023-05-03T05:50:49.581Z,1.10
2023-05-03T05:53:16.684Z,1.60
2023-05-03T05:55:52.876Z,1.65
2023-05-03T05:58:19.748Z,2.20
2023-05-03T06:00:51.154Z,1.52
2023-05-03T06:03:18.379Z,1.35
2023-05-03T06:05:47.404Z,2.70
2023-05-03T06:08:14.053Z,2.00
2023-05-03T06:10:40.567Z,1.80
2023-05-03T06:13:07.189Z,1.63
2023-05-03T06:15:34.699Z,2.05
2023-05-03T06:18:01.789Z,1.52
2023-05-03T06:20:28.569Z,1.73
2023-05-03T06:22:56.076Z,1.43
2023-05-03T06:25:22.711Z,1.20
2023-05-03T06:27:50.777Z,1.95
2023-05-03T06:30:20.659Z,1.50
2023-05-03T06:32:48.833Z,1.35
2023-05-03T06:35:15.821Z,1.30
2023-05-03T06:37:43.653Z,1.45
2023-05-03T06:40:11.017Z,1.20
2023-05-03T06:42:38.184Z,1.20
2023-05-03T06:45:11.360Z,1.23
2023-05-03T06:47:40.208Z,1.20
2023-05-03T06:50:07.540Z,0.90
2023-05-03T06:52:34.398Z,0.80
2023-05-03T06:55:01.373Z,0.65
2023-05-03T06:57:28.957Z,0.90
2023-05-03T06:59:55.730Z,1.00
2023-05-03T07:02:22.802Z,0.93
2023-05-03T07:04:49.485Z,1.15
2023-05-03T07:07:16.122Z,0.70
2023-05-03T07:09:43.899Z,1.10
2023-05-03T07:12:11.308Z,0.70
2023-05-03T07:14:39.164Z,0.88
2023-05-03T07:17:05.714Z,0.88
2023-05-03T07:19:32.219Z,1.08
2023-05-03T07:21:58.951Z,0.60
2023-05-03T07:24:26.021Z,0.70
2023-05-03T07:26:53.757Z,0.60
2023-05-03T07:29:20.809Z,0.85
2023-05-03T07:31:47.748Z,0.85
2023-05-03T07:34:14.350Z,0.52
2023-05-03T07:36:41.100Z,0.70
2023-05-03T07:39:07.856Z,0.70
2023-05-03T07:41:34.387Z,1.02
2023-05-03T07:44:00.966Z,0.70
2023-05-03T07:46:27.556Z,1.20
2023-05-03T07:48:54.040Z,0.80
2023-05-03T07:51:21.030Z,0.80
2023-05-03T07:53:47.592Z,0.70
2023-05-03T07:56:14.127Z,0.75
2023-05-03T07:58:41.598Z,0.68
2023-05-03T08:01:09.887Z,0.73
2023-05-03T08:03:36.694Z,0.80
2023-05-03T08:06:03.612Z,0.80
2023-05-03T08:08:32.150Z,0.70
2023-05-03T08:10:58.774Z,0.82
2023-05-03T08:13:25.609Z,1.20
2023-05-03T08:15:52.539Z,0.95
2023-05-03T08:18:21.597Z,0.60
2023-05-03T08:20:49.639Z,1.10
2023-05-03T08:23:19.334Z,0.95
2023-05-03T08:25:45.985Z,1.00
2023-05-03T08:28:12.564Z,0.90
2023-05-03T08:30:39.146Z,1.00
2023-05-03T08:33:05.788Z,1.27
2023-05-03T08:35:32.387Z,1.10
2023-05-03T08:37:58.885Z,1.13
2023-05-03T08:40:27.049Z,1.15
2023-05-03T08:42:56.578Z,1.42
2023-05-03T08:45:23.264Z,1.50
2023-05-03T08:47:55.113Z,1.80
2023-05-03T08:50:22.428Z,1.60
2023-05-03T08:52:48.928Z,1.52
2023-05-03T08:55:15.462Z,1.60
2023-05-03T08:57:42.077Z,1.40
2023-05-03T09:00:10.650Z,1.40
2023-05-03T09:02:39.683Z,1.10
2023-05-03T09:05:34.254Z,1.60
2023-05-03T09:08:09.356Z,1.58
2023-05-03T09:10:41.418Z,1.40
2023-05-03T09:13:09.333Z,1.30
2023-05-03T09:15:36.167Z,1.27
2023-05-03T09:18:21.345Z,1.27
2023-05-03T09:20:52.745Z,1.25
2023-05-03T09:23:26.033Z,1.30
2023-05-03T09:25:53.097Z,0.98
2023-05-03T09:28:20.435Z,1.10
2023-05-03T09:30:48.199Z,1.27
2023-05-03T09:33:22.356Z,0.80
2023-05-03T09:36:05.416Z,1.00
2023-05-03T09:38:34.889Z,1.20
2023-05-03T09:41:01.595Z,0.90
2023-05-03T09:43:28.589Z,1.20
2023-05-03T09:46:13.894Z,1.05
2023-05-03T09:48:41.140Z,1.02
2023-05-03T09:51:08.623Z,1.10
2023-05-03T09:53:37.168Z,1.10
2023-05-03T09:56:05.017Z,1.63
2023-05-03T09:58:34.852Z,1.10
2023-05-03T10:01:01.650Z,1.50
2023-05-03T10:03:44.909Z,1.50
2023-05-03T10:06:23.195Z,1.47
2023-05-03T10:08:54.679Z,1.63
2023-05-03T10:11:24.946Z,1.58
2023-05-03T10:13:51.890Z,1.70
2023-05-03T10:16:29.649Z,2.40
2023-05-03T10:19:04.527Z,1.33
2023-05-03T10:21:55.666Z,1.63
2023-05-03T10:24:22.273Z,2.10
2023-05-03T10:26:50.543Z,2.20
2023-05-03T10:29:35.920Z,1.70
2023-05-03T10:32:05.872Z,1.73
2023-05-03T10:34:34.581Z,1.70
2023-05-03T10:37:03.415Z,1.95
2023-05-03T10:39:30.927Z,1.73
2023-05-03T10:41:59.895Z,1.65
2023-05-03T10:44:35.396Z,2.10
2023-05-03T10:47:18.283Z,1.75
2023-05-03T10:49:45.856Z,1.50
2023-05-03T10:52:40.536Z,1.40
2023-05-03T10:55:11.234Z,1.30
2023-05-03T10:57:40.552Z,1.73
2023-05-03T11:00:13.542Z,1.50
2023-05-03T11:02:55.320Z,1.23
2023-05-03T11:05:23.498Z,1.30
2023-05-03T11:07:50.079Z,1.80
2023-05-03T11:10:17.895Z,1.90
2023-05-03T11:12:44.444Z,1.85
2023-05-03T11:15:12.384Z,1.63
2023-05-03T11:17:39.080Z,1.40
2023-05-03T11:20:08.723Z,2.38
2023-05-03T11:22:36.100Z,2.10
2023-05-03T11:25:03.217Z,2.00
2023-05-03T11:27:30.084Z,1.90
2023-05-03T11:29:58.567Z,2.00
2023-05-03T11:32:29.809Z,1.83
2023-05-03T11:34:59.193Z,1.57
2023-05-03T11:37:26.963Z,1.92
2023-05-03T11:39:53.696Z,1.70
2023-05-03T11:42:20.333Z,1.77
2023-05-03T11:44:46.895Z,2.28
2023-05-03T11:47:13.750Z,2.30
2023-05-03T11:49:40.501Z,2.42
2023-05-03T11:52:07.724Z,2.47
2023-05-03T11:54:36.528Z,2.40
2023-05-03T11:57:13.258Z,2.20
2023-05-03T11:59:40.981Z,2.20
2023-05-03T12:02:09.920Z,2.65
2023-05-03T12:04:41.650Z,2.22
2023-05-03T12:07:10.645Z,2.30
2023-05-03T12:09:39.895Z,2.67
2023-05-03T12:12:09.501Z,3.00
2023-05-03T12:14:58.724Z,2.05
2023-05-03T12:17:39.419Z,2.15
2023-05-03T12:23:00.763Z,2.50
2023-05-03T12:25:33.974Z,2.37
2023-05-03T12:30:33.987Z,2.20
2023-05-03T12:33:04.167Z,2.25
2023-05-03T12:35:34.044Z,2.17
2023-05-03T12:38:03.694Z,1.40
2023-05-03T12:40:34.271Z,1.77
2023-05-03T12:43:01.784Z,2.30
2023-05-03T12:45:33.815Z,2.40
2023-05-03T12:48:01.371Z,2.40
2023-05-03T12:50:31.197Z,2.13
2023-05-03T12:53:01.923Z,2.30
2023-05-03T12:55:34.643Z,2.40
2023-05-03T13:00:36.111Z,2.45
2023-05-03T13:05:35.761Z,2.53
2023-05-03T13:08:09.281Z,2.50
2023-05-03T13:10:36.259Z,2.90
2023-05-03T13:13:03.240Z,2.85
2023-05-03T13:15:29.812Z,2.37
2023-05-03T13:17:57.089Z,2.97
2023-05-03T13:20:24.222Z,2.70
2023-05-03T13:22:50.816Z,2.55
2023-05-03T13:25:17.376Z,2.17
2023-05-03T13:27:44.185Z,2.60
2023-05-03T13:30:11.174Z,2.13
2023-05-03T13:32:37.915Z,2.10
2023-05-03T13:35:05.553Z,2.25
2023-05-03T13:37:32.314Z,2.60
2023-05-03T13:39:59.214Z,2.50
2023-05-03T13:42:25.832Z,2.50
2023-05-03T13:44:52.397Z,2.83
2023-05-03T13:47:18.932Z,2.40
2023-05-03T13:49:45.503Z,2.83
2023-05-03T13:52:12.156Z,2.87
2023-05-03T13:54:38.932Z,2.72
2023-05-03T13:57:05.475Z,2.10
2023-05-03T13:59:32.078Z,2.67
2023-05-03T14:01:59.351Z,2.20
2023-05-03T14:04:26.093Z,1.87
2023-05-03T14:06:52.663Z,2.22
2023-05-03T14:09:19.302Z,2.20
2023-05-03T14:11:46.033Z,2.10
2023-05-03T14:14:12.707Z,2.53
2023-05-03T14:16:41.810Z,3.23
2023-05-03T14:19:10.785Z,3.25
2023-05-03T14:21:38.146Z,2.90
2023-05-03T14:24:06.520Z,2.85
2023-05-03T14:26:34.012Z,2.88
2023-05-03T14:29:00.991Z,2.57
2023-05-03T14:31:27.828Z,3.03
2023-05-03T14:33:54.969Z,2.65
2023-05-03T14:36:21.662Z,2.50
2023-05-03T14:38:48.218Z,2.58
2023-05-03T14:41:14.808Z,3.23
2023-05-03T14:43:41.401Z,2.92
2023-05-03T14:46:09.765Z,2.67
2023-05-03T14:48:38.023Z,3.05
2023-05-03T14:51:05.022Z,2.30
2023-05-03T14:53:31.776Z,2.23
2023-05-03T14:55:58.353Z,2.80
2023-05-03T14:58:25.008Z,2.60
2023-05-03T15:00:51.599Z,2.53
2023-05-03T15:03:18.468Z,2.70
2023-05-03T15:05:49.670Z,2.93
2023-05-03T15:08:17.823Z,2.70
2023-05-03T15:10:44.781Z,2.47
2023-05-03T15:13:15.829Z,2.63
2023-05-03T15:15:46.005Z,2.90
2023-05-03T15:18:14.372Z,2.57
2023-05-03T15:20:41.139Z,2.60
2023-05-03T15:23:07.790Z,2.40
2023-05-03T15:25:34.422Z,2.20
2023-05-03T15:28:04.084Z,2.03
2023-05-03T15:30:32.189Z,2.17
2023-05-03T15:32:58.876Z,2.78
2023-05-03T15:35:25.487Z,2.25
2023-05-03T15:37:52.149Z,2.13
2023-05-03T15:40:20.348Z,2.35
2023-05-03T15:42:47.065Z,1.97
2023-05-03T15:45:13.986Z,2.33
2023-05-03T15:47:40.815Z,2.70
2023-05-03T15:50:08.363Z,2.50
2023-05-03T15:52:35.327Z,2.13
2023-05-03T15:55:02.078Z,2.10
2023-05-03T15:57:30.169Z,1.73
2023-05-03T15:59:57.443Z,1.73
2023-05-03T16:02:24.276Z,2.08
2023-05-03T16:04:50.982Z,2.15
2023-05-03T16:07:18.129Z,2.20
2023-05-03T16:09:44.792Z,1.63
2023-05-03T16:12:11.321Z,1.95
2023-05-03T16:14:37.969Z,2.10
2023-05-03T16:17:04.577Z,2.40
2023-05-03T16:19:31.957Z,1.97
2023-05-03T16:21:58.778Z,2.40
2023-05-03T16:24:25.806Z,2.10
2023-05-03T16:26:52.810Z,1.70
2023-05-03T16:29:19.731Z,1.88
2023-05-03T16:31:46.971Z,1.90
2023-05-03T16:34:13.981Z,1.90
2023-05-03T16:36:44.146Z,2.10
2023-05-03T16:39:14.568Z,2.20
2023-05-03T16:41:41.586Z,5.22
2023-05-03T16:44:08.655Z,2.30
2023-05-03T16:46:36.193Z,2.50
2023-05-03T16:49:03.638Z,2.13
2023-05-03T16:51:31.555Z,1.98
2023-05-03T16:53:59.543Z,2.33
2023-05-03T16:56:27.041Z,2.33
2023-05-03T16:58:53.759Z,2.15
2023-05-03T17:01:20.299Z,2.17
2023-05-03T17:03:47.059Z,2.33
2023-05-03T17:06:13.829Z,1.90
2023-05-03T17:08:40.469Z,2.10
2023-05-03T17:11:09.385Z,2.38
2023-05-03T17:13:36.529Z,2.45
2023-05-03T17:16:08.613Z,2.40
2023-05-03T17:18:35.896Z,2.40
2023-05-03T17:21:04.617Z,2.47
2023-05-03T17:23:36.294Z,2.00
2023-05-03T17:26:08.336Z,2.10
2023-05-03T17:28:35.221Z,2.67
2023-05-03T17:31:02.639Z,2.42
2023-05-03T17:33:29.529Z,2.17
2023-05-03T17:35:56.121Z,2.40
2023-05-03T17:38:23.363Z,2.58
2023-05-03T17:40:49.928Z,2.67
2023-05-03T17:43:17.630Z,2.55
2023-05-03T17:45:45.781Z,2.73
2023-05-03T17:48:12.612Z,2.50
2023-05-03T17:50:39.533Z,2.58
2023-05-03T17:53:06.357Z,2.35
2023-05-03T17:55:38.001Z,2.60
2023-05-03T17:58:06.264Z,2.57
2023-05-03T18:00:33.800Z,3.17
2023-05-03T18:03:00.751Z,2.30
2023-05-03T18:05:27.537Z,2.53
2023-05-03T18:07:54.206Z,2.92
2023-05-03T18:10:20.862Z,2.60
2023-05-03T18:12:47.429Z,2.60
2023-05-03T18:15:15.292Z,2.75
2023-05-03T18:17:42.764Z,2.92
2023-05-03T18:20:10.250Z,3.00
2023-05-03T18:22:37.631Z,2.93
2023-05-03T18:25:07.247Z,2.70
2023-05-03T18:27:37.280Z,3.28
2023-05-03T18:30:06.723Z,2.75
2023-05-03T18:32:34.164Z,2.70
2023-05-03T18:35:01.233Z,2.90
2023-05-03T18:37:28.175Z,3.08
2023-05-03T18:39:54.833Z,2.85
2023-05-03T18:42:22.541Z,3.00
2023-05-03T18:44:49.375Z,3.17
2023-05-03T18:47:20.430Z,3.40
2023-05-03T18:49:48.565Z,2.70
2023-05-03T18:52:15.334Z,2.78
2023-05-03T18:54:41.924Z,3.15
2023-05-03T18:57:08.438Z,3.42
2023-05-03T18:59:40.343Z,3.07
2023-05-03T19:02:14.432Z,3.50
2023-05-03T19:04:43.786Z,2.70
2023-05-03T19:07:10.526Z,2.90
2023-05-03T19:09:40.457Z,3.20
2023-05-03T19:12:08.519Z,3.40
2023-05-03T19:14:39.274Z,3.40
2023-05-03T19:17:06.228Z,3.58
2023-05-03T19:19:32.900Z,3.40
2023-05-03T19:21:59.668Z,3.75
2023-05-03T19:24:26.720Z,3.40
2023-05-03T19:26:53.231Z,3.30
2023-05-03T19:29:20.291Z,3.03
2023-05-03T19:31:46.848Z,3.05
2023-05-03T19:34:13.389Z,3.33
2023-05-03T19:36:39.888Z,3.23
2023-05-03T19:39:07.608Z,3.42
2023-05-03T19:41:34.518Z,3.65
2023-05-03T19:44:01.022Z,3.42
2023-05-03T19:46:28.787Z,3.50
2023-05-03T19:48:55.479Z,3.70
2023-05-03T19:51:22.024Z,3.50
2023-05-03T19:53:49.107Z,3.33
2023-05-03T19:56:15.844Z,3.85
2023-05-03T19:58:42.375Z,3.92
2023-05-03T20:01:09.034Z,3.70
2023-05-03T20:03:35.814Z,3.67
2023-05-03T20:06:02.390Z,3.33
2023-05-03T20:08:29.416Z,3.80
2023-05-03T20:10:55.907Z,3.65
2023-05-03T20:13:22.853Z,3.63
2023-05-03T20:15:49.422Z,3.63
2023-05-03T20:18:15.959Z,3.47
2023-05-03T20:20:42.470Z,3.80
2023-05-03T20:23:08.970Z,3.40
2023-05-03T20:25:35.505Z,3.97
2023-05-03T20:28:02.205Z,4.13
2023-05-03T20:30:31.160Z,4.05
2023-05-03T20:32:58.583Z,4.03
2023-05-03T20:35:25.352Z,4.20
2023-05-03T20:37:51.975Z,4.10
2023-05-03T20:40:18.485Z,3.85
2023-05-03T20:42:45.247Z,4.60
2023-05-03T20:45:12.314Z,3.85
2023-05-03T20:47:38.834Z,4.60
2023-05-03T20:50:06.244Z,3.70
2023-05-03T20:52:32.970Z,4.32
2023-05-03T20:54:59.549Z,4.50
2023-05-03T20:57:26.106Z,4.10
2023-05-03T20:59:52.653Z,4.25
2023-05-03T21:02:19.166Z,4.60
2023-05-03T21:04:45.645Z,4.38
2023-05-03T21:07:12.152Z,4.45
2023-05-03T21:09:38.661Z,4.40
2023-05-03T21:12:05.481Z,4.70
2023-05-03T21:14:32.028Z,4.17
2023-05-03T21:16:58.718Z,4.38
2023-05-03T21:19:25.485Z,5.50
2023-05-03T21:21:51.983Z,4.90
2023-05-03T21:24:18.536Z,3.95
2023-05-03T21:26:45.068Z,4.07
2023-05-03T21:29:12.225Z,4.57
2023-05-03T21:31:40.115Z,4.80
2023-05-03T21:34:06.812Z,4.65
2023-05-03T21:36:33.597Z,4.90
2023-05-03T21:39:00.189Z,4.80
2023-05-03T21:41:27.047Z,4.50
2023-05-03T21:43:53.585Z,4.75
2023-05-03T21:46:20.153Z,4.50
2023-05-03T21:48:46.723Z,5.40
2023-05-03T21:51:20.037Z,5.00
2023-05-03T21:53:47.344Z,4.63
2023-05-03T21:56:14.990Z,4.70
2023-05-03T21:58:44.258Z,4.38
2023-05-03T22:01:11.661Z,5.20
2023-05-03T22:03:40.023Z,4.43
2023-05-03T22:06:08.875Z,4.60
2023-05-03T22:08:35.537Z,4.90
2023-05-03T22:11:06.938Z,4.80
2023-05-03T22:13:34.469Z,5.75
2023-05-03T22:16:08.131Z,4.93
2023-05-03T22:18:35.129Z,4.80
2023-05-03T22:21:03.372Z,4.97
2023-05-03T22:23:30.808Z,5.32
2023-05-03T22:25:59.163Z,5.30
2023-05-03T22:28:25.645Z,5.37
2023-05-03T22:30:52.217Z,4.85
2023-05-03T22:33:18.879Z,5.03
2023-05-03T22:35:45.881Z,5.13
2023-05-03T22:38:12.447Z,4.28
2023-05-03T22:40:39.127Z,4.77
2023-05-03T22:43:05.598Z,4.65
2023-05-03T22:45:32.216Z,4.90
2023-05-03T22:47:58.869Z,5.15
2023-05-03T22:50:25.443Z,4.93
2023-05-03T22:52:51.918Z,4.80
2023-05-03T22:55:18.813Z,5.18
2023-05-03T22:57:45.409Z,4.53
2023-05-03T23:00:12.357Z,4.68
2023-05-03T23:02:39.000Z,4.00
2023-05-03T23:05:06.581Z,4.80
2023-05-03T23:07:33.119Z,4.05
2023-05-03T23:10:02.608Z,4.68
2023-05-03T23:12:29.756Z,4.20
2023-05-03T23:14:56.348Z,4.85
2023-05-03T23:17:23.202Z,4.50
2023-05-03T23:19:49.733Z,4.32
2023-05-03T23:22:16.718Z,4.30
2023-05-03T23:24:43.296Z,4.22
2023-05-03T23:27:12.402Z,4.13
2023-05-03T23:29:39.296Z,4.63
2023-05-03T23:32:06.401Z,4.20
2023-05-03T23:34:33.458Z,4.22
2023-05-03T23:36:59.909Z,4.22
2023-05-03T23:39:26.680Z,5.20
2023-05-03T23:41:53.161Z,4.40
2023-05-03T23:44:19.656Z,4.90
2023-05-03T23:46:46.208Z,4.00
2023-05-03T23:49:12.712Z,4.57
2023-05-03T23:51:39.335Z,4.10
2023-05-03T23:54:06.110Z,4.50
2023-05-03T23:56:32.620Z,4.05
2023-05-03T23:58:59.949Z,3.92
